Flight Track Log - Related Links

Times and Time Zones

All times are in EDT time to prevent confusion due to time zone crossing. See the PDT4130 flight status page for this flight to view local times or setup timezone preferences in your user account.

Time Position Orientation Groundspeed Altitude Reporting Facility
EDT Latitude Longitude Course Direction KTS MPH feet Rate Location/Type
Fri 09:56:15 PM 39.8837 -75.2491 340° North  Level FlightAware Approximate
Fri 09:57:15 PM 39.9260 -75.2880 138° Southeast  Level FlightAware Approximate
Fri 09:57:46 PM 39.8997 -75.2567 291° West 128 147 1,400  Level FAA TRACON SMA TRACON (SMA)
Fri 09:58:26 PM 39.9094 -75.2897 287° West 145 167 2,400 1,650 Climbing FAA TRACON SMA TRACON (SMA)
Fri 09:59:06 PM 39.9178 -75.3244 287° West 145 167 3,600 1,575 Climbing FAA TRACON SMA TRACON (SMA)
Fri 09:59:46 PM 39.9247 -75.3542 287° West 143 165 4,500 1,630 Climbing FAA TRACON SMA TRACON (SMA)
Fri 10:00:27 PM 39.9325 -75.3878 292° West 136 157 5,800 1,778 Climbing FAA TRACON SMA TRACON (SMA)
Fri 10:01:07 PM 39.9422 -75.4197 296° West 138 159 6,900 1,650 Climbing FAA TRACON SMA TRACON (SMA)
Fri 10:01:47 PM 39.9528 -75.4481 306° West 140 161 8,000 1,500 Climbing FAA TRACON SMA TRACON (SMA)
Fri 10:02:27 PM 39.9681 -75.4756 347° North 158 182 8,900 750 Climbing FAA TRACON SMA TRACON (SMA)
Fri 10:03:07 PM 40.0008 -75.4853 343° North 186 214 9,000 75 Climbing FAA TRACON SMA TRACON (SMA)
Fri 10:03:47 PM 40.0378 -75.4997 336° Northwest 196 226 9,000 150 Level FAA TRACON SMA TRACON (SMA)
Fri 10:04:27 PM 40.0689 -75.5181 347° North 198 228 9,200 684 Climbing FAA TRACON SMA TRACON (SMA)
Fri 10:05:06 PM 40.1044 -75.5292 355° North 182 209 9,900 987 Climbing FAA TRACON SMA TRACON (SMA)
Fri 10:05:46 PM 40.1350 -75.5328 355° North 182 209 10,500 975 Climbing FAA TRACON SMA TRACON (SMA)
Fri 10:06:26 PM 40.1683 -75.5367 351° North 174 200 11,200 1,050 Climbing FAA TRACON SMA TRACON (SMA)
Fri 10:07:06 PM 40.2006 -75.5436 345° North 166 191 11,900 600 Climbing FAA TRACON SMA TRACON (SMA)
Fri 10:07:46 PM 40.2278 -75.5533 331° Northwest 167 192 12,000 75 Climbing FAA TRACON SMA TRACON (SMA)
Fri 10:08:26 PM 40.2594 -75.5764 324° Northwest 192 221 12,000  Level FAA TRACON SMA TRACON (SMA)
Fri 10:09:07 PM 40.2878 -75.6033 325° Northwest 193 222 12,000  Level FAA TRACON SMA TRACON (SMA)
Fri 10:09:47 PM 40.3169 -75.6300 336° Northwest 198 228 12,000  Level FAA TRACON SMA TRACON (SMA)
Fri 10:10:27 PM 40.3542 -75.6519 337° Northwest 210 242 12,000  Level FAA TRACON SMA TRACON (SMA)
Fri 10:11:07 PM 40.3900 -75.6717 333° Northwest 211 243 12,000  Level FAA TRACON SMA TRACON (SMA)
Fri 10:11:47 PM 40.4192 -75.6914 333° Northwest 207 238 12,000  Level FAA TRACON SMA TRACON (SMA)
Fri 10:12:30 PM 40.4600 -75.7192 333° Northwest 205 236 12,000  Level New York Center
Fri 10:13:30 PM 40.5106 -75.7528 333° Northwest 205 236 12,000  Level New York Center
Fri 10:14:28 PM 40.5572 -75.7836 329° Northwest 205 236 12,000  Level New York Center
Fri 10:15:29 PM 40.6056 -75.8225 333° Northwest 205 236 12,000  Level New York Center
Fri 10:16:27 PM 40.6644 -75.8625 331° Northwest 205 236 12,000  Level New York Center
Fri 10:17:28 PM 40.7147 -75.8992 333° Northwest 205 236 12,000  Level New York Center
Fri 10:18:28 PM 40.7656 -75.9331 336° Northwest 205 236 12,000  Level New York Center
Fri 10:19:29 PM 40.8203 -75.9647 330° Northwest 205 236 12,000  Level New York Center
Fri 10:20:29 PM 40.8686 -76.0011 331° Northwest 205 236 12,000  Level New York Center
Fri 10:21:29 PM 40.9192 -76.0381 335° Northwest 205 236 12,000  Level New York Center
Fri 10:22:28 PM 40.9658 -76.0664 335° Northwest 199 229 12,000  Level New York Center
Fri 10:23:29 PM 41.0164 -76.0978 328° Northwest 199 229 12,000  Level New York Center
Fri 10:24:30 PM 41.0647 -76.1375 337° Northwest 199 229 12,000  Level New York Center
Fri 10:25:28 PM 41.1217 -76.1694 333° Northwest 199 229 12,000  Level New York Center
Fri 10:26:28 PM 41.1722 -76.2039 333° Northwest 199 229 12,000  Level New York Center
Fri 10:27:29 PM 41.2228 -76.2383 335° Northwest 199 229 12,000 -50 Level New York Center
Fri 10:28:29 PM 41.2692 -76.2669 330° Northwest 199 229 11,900 -446 Descending New York Center
Fri 10:29:30 PM 41.3214 -76.3069 329° Northwest 206 237 11,100 -446 Descending New York Center
Fri 10:30:30 PM 41.3797 -76.3533 336° Northwest 213 245 11,000 -50 Descending New York Center
Fri 10:31:29 PM 41.4325 -76.3853 333° Northwest 213 245 11,000  Level New York Center
Fri 10:32:27 PM 41.4789 -76.4169 330° Northwest 208 239 11,000  Level New York Center
Fri 10:33:28 PM 41.5269 -76.4542 335° Northwest 203 234 11,000  Level New York Center
Fri 10:34:29 PM 41.5836 -76.4894 331° Northwest 196 226 11,000  Level New York Center
Fri 10:35:30 PM 41.6339 -76.5272 332° Northwest 196 226 11,000  Level New York Center
Fri 10:36:30 PM 41.6822 -76.5619 333° Northwest 196 226 11,000 -51 Level New York Center
Fri 10:37:28 PM 41.7286 -76.5936 330° Northwest 201 231 10,900 -712 Descending New York Center
Fri 10:38:28 PM 41.7847 -76.6375 302° West 206 237 9,600 -1,240 Descending New York Center
Fri 10:39:29 PM 41.8167 -76.7072 304° West 206 237 8,400 -1,190 Descending New York Center
Fri 10:40:29 PM 41.8508 -76.7742 307° West 211 243 7,200 -1,140 Descending New York Center
Fri 10:41:30 PM 41.8850 -76.8358 328° Northwest 211 243 6,100 -1,190 Descending New York Center
Fri 10:42:30 PM 41.9369 -76.8797 330° Northwest 211 243 4,800 -1,068 Descending New York Center
Fri 10:43:28 PM 41.9892 -76.9208 329° Northwest 211 243 4,000 -403 Descending New York Center
Fri 10:44:29 PM 42.0350 -76.9586 338° Northwest 217 250 4,000 -298 Level New York Center
Fri 10:45:29 PM 42.0794 -76.9822 20° North 195 224 3,400 -744 Descending New York Center
Fri 10:46:30 PM 42.1181 -76.9636 20° North 139 160 2,500 -885 Descending New York Center

Login

Don't have an account? Register now (free) for customized features, flight alerts, and more!